sensor_id;sensor_type;location;lat;lon;timestamp;P1;durP1;ratioP1;P2;durP2;ratioP2
45392;SDS011;31129;44.810;10.334;2023-02-10T00:02:22;29.02;;;15.18;;
45392;SDS011;31129;44.810;10.334;2023-02-10T00:04:48;29.02;;;14.43;;
45392;SDS011;31129;44.810;10.334;2023-02-10T00:07:13;33.80;;;15.57;;
45392;SDS011;31129;44.810;10.334;2023-02-10T00:09:39;27.05;;;13.60;;
45392;SDS011;31129;44.810;10.334;2023-02-10T00:12:05;29.27;;;14.55;;
45392;SDS011;31129;44.810;10.334;2023-02-10T00:14:33;32.10;;;15.05;;
45392;SDS011;31129;44.810;10.334;2023-02-10T00:16:58;33.30;;;14.68;;
45392;SDS011;31129;44.810;10.334;2023-02-10T00:19:25;26.63;;;13.90;;
45392;SDS011;31129;44.810;10.334;2023-02-10T00:21:51;27.10;;;14.15;;
45392;SDS011;31129;44.810;10.334;2023-02-10T00:24:17;25.67;;;14.95;;
45392;SDS011;31129;44.810;10.334;2023-02-10T00:26:43;23.27;;;13.35;;
45392;SDS011;31129;44.810;10.334;2023-02-10T00:29:08;25.75;;;14.57;;
45392;SDS011;31129;44.810;10.334;2023-02-10T00:31:34;29.58;;;13.57;;
45392;SDS011;31129;44.810;10.334;2023-02-10T00:34:00;26.45;;;13.13;;
45392;SDS011;31129;44.810;10.334;2023-02-10T00:36:26;32.85;;;13.45;;
45392;SDS011;31129;44.810;10.334;2023-02-10T00:38:51;24.35;;;13.32;;
45392;SDS011;31129;44.810;10.334;2023-02-10T00:41:18;23.63;;;12.55;;
45392;SDS011;31129;44.810;10.334;2023-02-10T00:43:45;24.48;;;13.35;;
45392;SDS011;31129;44.810;10.334;2023-02-10T00:46:12;26.27;;;13.95;;
45392;SDS011;31129;44.810;10.334;2023-02-10T00:48:39;28.55;;;13.52;;
45392;SDS011;31129;44.810;10.334;2023-02-10T00:51:04;29.02;;;14.57;;
45392;SDS011;31129;44.810;10.334;2023-02-10T00:53:31;25.08;;;13.35;;
45392;SDS011;31129;44.810;10.334;2023-02-10T00:55:57;25.23;;;12.23;;
45392;SDS011;31129;44.810;10.334;2023-02-10T00:58:22;24.27;;;13.20;;
45392;SDS011;31129;44.810;10.334;2023-02-10T01:00:48;22.20;;;11.93;;
45392;SDS011;31129;44.810;10.334;2023-02-10T01:03:14;26.92;;;12.52;;
45392;SDS011;31129;44.810;10.334;2023-02-10T01:05:40;24.25;;;13.07;;
45392;SDS011;31129;44.810;10.334;2023-02-10T01:08:06;24.05;;;11.80;;
45392;SDS011;31129;44.810;10.334;2023-02-10T01:10:32;23.45;;;13.52;;
45392;SDS011;31129;44.810;10.334;2023-02-10T01:13:02;26.88;;;13.05;;
45392;SDS011;31129;44.810;10.334;2023-02-10T01:15:29;21.07;;;11.40;;
45392;SDS011;31129;44.810;10.334;2023-02-10T01:17:58;21.23;;;11.98;;
45392;SDS011;31129;44.810;10.334;2023-02-10T01:20:25;21.30;;;12.13;;
45392;SDS011;31129;44.810;10.334;2023-02-10T01:22:52;23.55;;;12.18;;
45392;SDS011;31129;44.810;10.334;2023-02-10T01:25:17;20.67;;;11.50;;
45392;SDS011;31129;44.810;10.334;2023-02-10T01:27:43;26.77;;;13.57;;
45392;SDS011;31129;44.810;10.334;2023-02-10T01:30:09;22.17;;;11.30;;
45392;SDS011;31129;44.810;10.334;2023-02-10T01:32:40;24.65;;;12.70;;
45392;SDS011;31129;44.810;10.334;2023-02-10T01:35:06;26.40;;;13.63;;
45392;SDS011;31129;44.810;10.334;2023-02-10T01:37:32;27.52;;;13.45;;
45392;SDS011;31129;44.810;10.334;2023-02-10T01:39:59;26.05;;;12.63;;
45392;SDS011;31129;44.810;10.334;2023-02-10T01:42:25;25.15;;;12.85;;
45392;SDS011;31129;44.810;10.334;2023-02-10T01:47:16;22.52;;;12.07;;
45392;SDS011;31129;44.810;10.334;2023-02-10T01:49:42;23.55;;;12.60;;
45392;SDS011;31129;44.810;10.334;2023-02-10T01:52:18;23.63;;;12.70;;
45392;SDS011;31129;44.810;10.334;2023-02-10T01:54:57;22.70;;;12.93;;
45392;SDS011;31129;44.810;10.334;2023-02-10T01:57:27;23.77;;;13.10;;
45392;SDS011;31129;44.810;10.334;2023-02-10T01:59:53;21.70;;;12.35;;
45392;SDS011;31129;44.810;10.334;2023-02-10T02:02:19;25.35;;;14.07;;
45392;SDS011;31129;44.810;10.334;2023-02-10T02:04:53;27.42;;;14.48;;
45392;SDS011;31129;44.810;10.334;2023-02-10T02:07:39;26.15;;;12.50;;
45392;SDS011;31129;44.810;10.334;2023-02-10T02:10:04;27.52;;;13.63;;
45392;SDS011;31129;44.810;10.334;2023-02-10T02:18:07;27.00;;;13.10;;
45392;SDS011;31129;44.810;10.334;2023-02-10T02:20:58;27.55;;;13.63;;
45392;SDS011;31129;44.810;10.334;2023-02-10T02:24:05;22.38;;;11.93;;
45392;SDS011;31129;44.810;10.334;2023-02-10T02:32:23;24.48;;;13.10;;
45392;SDS011;31129;44.810;10.334;2023-02-10T02:34:56;23.25;;;12.80;;
45392;SDS011;31129;44.810;10.334;2023-02-10T02:37:37;25.70;;;13.95;;
45392;SDS011;31129;44.810;10.334;2023-02-10T02:40:06;24.20;;;13.73;;
45392;SDS011;31129;44.810;10.334;2023-02-10T02:42:33;27.15;;;13.32;;
45392;SDS011;31129;44.810;10.334;2023-02-10T02:45:10;25.98;;;13.75;;
45392;SDS011;31129;44.810;10.334;2023-02-10T03:01:12;28.58;;;15.13;;
45392;SDS011;31129;44.810;10.334;2023-02-10T03:03:41;26.33;;;13.35;;
45392;SDS011;31129;44.810;10.334;2023-02-10T03:06:07;27.48;;;13.32;;
45392;SDS011;31129;44.810;10.334;2023-02-10T03:08:34;27.85;;;14.05;;
45392;SDS011;31129;44.810;10.334;2023-02-10T03:11:06;27.33;;;13.98;;
45392;SDS011;31129;44.810;10.334;2023-02-10T03:13:31;25.73;;;13.80;;
45392;SDS011;31129;44.810;10.334;2023-02-10T03:15:58;30.77;;;12.82;;
45392;SDS011;31129;44.810;10.334;2023-02-10T03:18:24;28.13;;;14.27;;
45392;SDS011;31129;44.810;10.334;2023-02-10T03:20:50;26.08;;;12.73;;
45392;SDS011;31129;44.810;10.334;2023-02-10T03:23:15;25.45;;;13.90;;
45392;SDS011;31129;44.810;10.334;2023-02-10T03:25:44;22.05;;;12.63;;
45392;SDS011;31129;44.810;10.334;2023-02-10T03:28:11;28.08;;;14.88;;
45392;SDS011;31129;44.810;10.334;2023-02-10T03:30:36;26.42;;;13.25;;
45392;SDS011;31129;44.810;10.334;2023-02-10T03:33:03;29.00;;;14.05;;
45392;SDS011;31129;44.810;10.334;2023-02-10T03:35:28;28.70;;;13.98;;
45392;SDS011;31129;44.810;10.334;2023-02-10T03:37:54;24.75;;;13.60;;
45392;SDS011;31129;44.810;10.334;2023-02-10T03:40:19;27.77;;;14.68;;
45392;SDS011;31129;44.810;10.334;2023-02-10T03:42:45;27.95;;;14.57;;
45392;SDS011;31129;44.810;10.334;2023-02-10T03:45:17;24.40;;;13.52;;
45392;SDS011;31129;44.810;10.334;2023-02-10T03:47:42;26.90;;;14.05;;
45392;SDS011;31129;44.810;10.334;2023-02-10T03:50:08;28.67;;;14.15;;
45392;SDS011;31129;44.810;10.334;2023-02-10T03:52:36;27.95;;;13.93;;
45392;SDS011;31129;44.810;10.334;2023-02-10T03:55:02;29.92;;;16.02;;
45392;SDS011;31129;44.810;10.334;2023-02-10T03:57:27;30.98;;;15.07;;
45392;SDS011;31129;44.810;10.334;2023-02-10T03:59:53;25.75;;;13.75;;
45392;SDS011;31129;44.810;10.334;2023-02-10T04:02:18;27.40;;;14.95;;
45392;SDS011;31129;44.810;10.334;2023-02-10T04:07:12;27.42;;;14.13;;
45392;SDS011;31129;44.810;10.334;2023-02-10T04:09:38;33.13;;;15.15;;
45392;SDS011;31129;44.810;10.334;2023-02-10T04:12:04;33.80;;;15.27;;
45392;SDS011;31129;44.810;10.334;2023-02-10T04:14:29;29.45;;;14.30;;
45392;SDS011;31129;44.810;10.334;2023-02-10T04:16:55;30.13;;;14.48;;
45392;SDS011;31129;44.810;10.334;2023-02-10T04:19:20;33.00;;;15.75;;
45392;SDS011;31129;44.810;10.334;2023-02-10T04:21:46;28.02;;;14.90;;
45392;SDS011;31129;44.810;10.334;2023-02-10T04:24:13;24.50;;;14.07;;
45392;SDS011;31129;44.810;10.334;2023-02-10T04:26:39;32.50;;;16.40;;
45392;SDS011;31129;44.810;10.334;2023-02-10T04:29:04;28.40;;;14.65;;
45392;SDS011;31129;44.810;10.334;2023-02-10T04:31:30;27.60;;;15.05;;
45392;SDS011;31129;44.810;10.334;2023-02-10T04:33:55;26.95;;;13.93;;
45392;SDS011;31129;44.810;10.334;2023-02-10T04:36:21;28.25;;;14.32;;
45392;SDS011;31129;44.810;10.334;2023-02-10T04:38:46;31.90;;;14.82;;
45392;SDS011;31129;44.810;10.334;2023-02-10T04:41:12;29.75;;;14.73;;
45392;SDS011;31129;44.810;10.334;2023-02-10T04:43:38;38.70;;;14.25;;
45392;SDS011;31129;44.810;10.334;2023-02-10T04:46:03;34.13;;;15.40;;
45392;SDS011;31129;44.810;10.334;2023-02-10T04:48:29;28.02;;;14.98;;
45392;SDS011;31129;44.810;10.334;2023-02-10T04:50:55;33.33;;;15.93;;
45392;SDS011;31129;44.810;10.334;2023-02-10T04:53:20;36.60;;;14.13;;
45392;SDS011;31129;44.810;10.334;2023-02-10T04:55:46;26.80;;;13.85;;
45392;SDS011;31129;44.810;10.334;2023-02-10T04:58:12;33.83;;;15.80;;
45392;SDS011;31129;44.810;10.334;2023-02-10T05:00:37;36.35;;;15.43;;
45392;SDS011;31129;44.810;10.334;2023-02-10T05:03:03;28.25;;;16.02;;
45392;SDS011;31129;44.810;10.334;2023-02-10T05:05:28;27.50;;;14.48;;
45392;SDS011;31129;44.810;10.334;2023-02-10T05:07:54;30.58;;;14.82;;
45392;SDS011;31129;44.810;10.334;2023-02-10T05:10:19;30.48;;;14.98;;
45392;SDS011;31129;44.810;10.334;2023-02-10T05:12:45;28.08;;;14.15;;
45392;SDS011;31129;44.810;10.334;2023-02-10T05:15:11;30.80;;;16.35;;
45392;SDS011;31129;44.810;10.334;2023-02-10T05:17:38;30.45;;;15.85;;
45392;SDS011;31129;44.810;10.334;2023-02-10T05:20:04;35.85;;;15.73;;
45392;SDS011;31129;44.810;10.334;2023-02-10T05:22:30;29.10;;;14.73;;
45392;SDS011;31129;44.810;10.334;2023-02-10T05:24:56;31.65;;;16.67;;
45392;SDS011;31129;44.810;10.334;2023-02-10T05:27:22;32.28;;;16.15;;
45392;SDS011;31129;44.810;10.334;2023-02-10T05:29:51;31.67;;;15.25;;
45392;SDS011;31129;44.810;10.334;2023-02-10T05:32:23;32.63;;;16.00;;
45392;SDS011;31129;44.810;10.334;2023-02-10T05:34:52;31.38;;;16.02;;
45392;SDS011;31129;44.810;10.334;2023-02-10T05:37:17;36.95;;;16.33;;
45392;SDS011;31129;44.810;10.334;2023-02-10T05:39:43;36.92;;;16.35;;
45392;SDS011;31129;44.810;10.334;2023-02-10T05:42:09;41.45;;;16.17;;
45392;SDS011;31129;44.810;10.334;2023-02-10T05:44:34;34.40;;;16.25;;
45392;SDS011;31129;44.810;10.334;2023-02-10T05:47:00;33.05;;;16.40;;
45392;SDS011;31129;44.810;10.334;2023-02-10T05:49:26;32.58;;;16.45;;
45392;SDS011;31129;44.810;10.334;2023-02-10T05:51:51;31.55;;;16.33;;
45392;SDS011;31129;44.810;10.334;2023-02-10T05:54:18;32.90;;;16.30;;
45392;SDS011;31129;44.810;10.334;2023-02-10T05:56:44;30.92;;;15.38;;
45392;SDS011;31129;44.810;10.334;2023-02-10T05:59:10;32.65;;;15.77;;
45392;SDS011;31129;44.810;10.334;2023-02-10T06:01:39;33.45;;;15.70;;
45392;SDS011;31129;44.810;10.334;2023-02-10T06:04:09;29.20;;;15.50;;
45392;SDS011;31129;44.810;10.334;2023-02-10T06:06:35;31.73;;;15.48;;
45392;SDS011;31129;44.810;10.334;2023-02-10T06:09:02;34.00;;;15.82;;
45392;SDS011;31129;44.810;10.334;2023-02-10T06:11:35;33.38;;;16.08;;
45392;SDS011;31129;44.810;10.334;2023-02-10T06:14:01;30.98;;;15.05;;
45392;SDS011;31129;44.810;10.334;2023-02-10T06:16:27;37.55;;;15.88;;
45392;SDS011;31129;44.810;10.334;2023-02-10T06:18:56;34.85;;;16.80;;
45392;SDS011;31129;44.810;10.334;2023-02-10T06:21:23;35.55;;;17.33;;
45392;SDS011;31129;44.810;10.334;2023-02-10T06:23:49;33.15;;;15.48;;
45392;SDS011;31129;44.810;10.334;2023-02-10T06:26:15;37.22;;;16.27;;
45392;SDS011;31129;44.810;10.334;2023-02-10T06:28:41;30.65;;;16.85;;
45392;SDS011;31129;44.810;10.334;2023-02-10T06:31:06;33.03;;;15.70;;
45392;SDS011;31129;44.810;10.334;2023-02-10T06:33:34;27.67;;;13.57;;
45392;SDS011;31129;44.810;10.334;2023-02-10T06:36:01;32.42;;;15.48;;
45392;SDS011;31129;44.810;10.334;2023-02-10T06:38:31;37.17;;;17.33;;
45392;SDS011;31129;44.810;10.334;2023-02-10T06:40:57;30.95;;;14.48;;
45392;SDS011;31129;44.810;10.334;2023-02-10T06:43:23;31.35;;;15.02;;
45392;SDS011;31129;44.810;10.334;2023-02-10T06:45:48;31.02;;;15.45;;
45392;SDS011;31129;44.810;10.334;2023-02-10T06:48:14;33.45;;;15.73;;
45392;SDS011;31129;44.810;10.334;2023-02-10T06:50:39;34.72;;;16.73;;
45392;SDS011;31129;44.810;10.334;2023-02-10T06:53:05;34.13;;;16.33;;
45392;SDS011;31129;44.810;10.334;2023-02-10T06:55:31;33.13;;;15.80;;
45392;SDS011;31129;44.810;10.334;2023-02-10T06:57:59;34.38;;;15.55;;
45392;SDS011;31129;44.810;10.334;2023-02-10T07:00:25;34.60;;;16.35;;
45392;SDS011;31129;44.810;10.334;2023-02-10T07:02:50;33.53;;;15.45;;
45392;SDS011;31129;44.810;10.334;2023-02-10T07:05:16;30.95;;;15.55;;
45392;SDS011;31129;44.810;10.334;2023-02-10T07:07:42;35.08;;;15.80;;
45392;SDS011;31129;44.810;10.334;2023-02-10T07:10:07;33.70;;;16.23;;
45392;SDS011;31129;44.810;10.334;2023-02-10T07:12:34;35.42;;;17.38;;
45392;SDS011;31129;44.810;10.334;2023-02-10T07:14:59;41.30;;;15.85;;
45392;SDS011;31129;44.810;10.334;2023-02-10T07:17:25;40.17;;;17.83;;
45392;SDS011;31129;44.810;10.334;2023-02-10T07:19:51;34.83;;;17.63;;
45392;SDS011;31129;44.810;10.334;2023-02-10T07:22:16;35.30;;;16.58;;
45392;SDS011;31129;44.810;10.334;2023-02-10T07:24:42;36.45;;;16.00;;
45392;SDS011;31129;44.810;10.334;2023-02-10T07:27:07;31.08;;;16.90;;
45392;SDS011;31129;44.810;10.334;2023-02-10T07:29:33;47.72;;;16.70;;
45392;SDS011;31129;44.810;10.334;2023-02-10T07:31:58;36.22;;;15.82;;
45392;SDS011;31129;44.810;10.334;2023-02-10T07:34:24;33.55;;;16.77;;
45392;SDS011;31129;44.810;10.334;2023-02-10T07:36:50;33.53;;;16.88;;
45392;SDS011;31129;44.810;10.334;2023-02-10T07:39:19;32.80;;;17.42;;
45392;SDS011;31129;44.810;10.334;2023-02-10T07:41:46;44.55;;;17.48;;
45392;SDS011;31129;44.810;10.334;2023-02-10T07:44:11;39.17;;;16.77;;
45392;SDS011;31129;44.810;10.334;2023-02-10T07:46:37;35.13;;;17.83;;
45392;SDS011;31129;44.810;10.334;2023-02-10T07:49:06;38.55;;;16.83;;
45392;SDS011;31129;44.810;10.334;2023-02-10T07:51:32;35.40;;;17.58;;
45392;SDS011;31129;44.810;10.334;2023-02-10T07:53:59;34.45;;;17.00;;
45392;SDS011;31129;44.810;10.334;2023-02-10T07:56:25;39.22;;;18.50;;
45392;SDS011;31129;44.810;10.334;2023-02-10T07:58:50;38.30;;;16.73;;
45392;SDS011;31129;44.810;10.334;2023-02-10T08:01:16;36.22;;;16.80;;
45392;SDS011;31129;44.810;10.334;2023-02-10T08:03:41;36.92;;;16.85;;
45392;SDS011;31129;44.810;10.334;2023-02-10T08:06:07;34.35;;;16.42;;
45392;SDS011;31129;44.810;10.334;2023-02-10T08:08:33;46.10;;;17.73;;
45392;SDS011;31129;44.810;10.334;2023-02-10T08:11:02;33.20;;;16.60;;
45392;SDS011;31129;44.810;10.334;2023-02-10T08:13:28;35.97;;;17.25;;
45392;SDS011;31129;44.810;10.334;2023-02-10T08:15:55;42.75;;;17.25;;
45392;SDS011;31129;44.810;10.334;2023-02-10T08:18:20;46.72;;;18.13;;
45392;SDS011;31129;44.810;10.334;2023-02-10T08:20:46;30.67;;;14.35;;
45392;SDS011;31129;44.810;10.334;2023-02-10T08:23:15;31.75;;;16.05;;
45392;SDS011;31129;44.810;10.334;2023-02-10T08:25:42;36.33;;;16.27;;
45392;SDS011;31129;44.810;10.334;2023-02-10T08:28:09;38.72;;;16.90;;
45392;SDS011;31129;44.810;10.334;2023-02-10T08:30:35;36.60;;;18.10;;
45392;SDS011;31129;44.810;10.334;2023-02-10T08:33:03;33.50;;;17.33;;
45392;SDS011;31129;44.810;10.334;2023-02-10T08:35:34;35.88;;;16.67;;
45392;SDS011;31129;44.810;10.334;2023-02-10T08:38:01;37.67;;;17.20;;
45392;SDS011;31129;44.810;10.334;2023-02-10T08:40:28;37.42;;;17.30;;
45392;SDS011;31129;44.810;10.334;2023-02-10T08:42:54;37.67;;;16.15;;
45392;SDS011;31129;44.810;10.334;2023-02-10T08:45:22;39.58;;;18.30;;
45392;SDS011;31129;44.810;10.334;2023-02-10T08:47:49;35.45;;;17.17;;
45392;SDS011;31129;44.810;10.334;2023-02-10T08:50:15;34.05;;;17.17;;
45392;SDS011;31129;44.810;10.334;2023-02-10T08:52:41;33.55;;;16.45;;
45392;SDS011;31129;44.810;10.334;2023-02-10T08:55:07;39.67;;;18.00;;
45392;SDS011;31129;44.810;10.334;2023-02-10T08:57:33;32.30;;;16.65;;
45392;SDS011;31129;44.810;10.334;2023-02-10T08:59:59;33.35;;;16.52;;
45392;SDS011;31129;44.810;10.334;2023-02-10T09:02:26;34.95;;;17.10;;
45392;SDS011;31129;44.810;10.334;2023-02-10T09:04:54;32.95;;;16.63;;
45392;SDS011;31129;44.810;10.334;2023-02-10T09:09:45;37.20;;;16.13;;
45392;SDS011;31129;44.810;10.334;2023-02-10T09:12:11;34.95;;;16.63;;
45392;SDS011;31129;44.810;10.334;2023-02-10T09:14:40;39.47;;;18.30;;
45392;SDS011;31129;44.810;10.334;2023-02-10T09:17:06;34.03;;;17.40;;
45392;SDS011;31129;44.810;10.334;2023-02-10T09:19:36;36.70;;;17.52;;
45392;SDS011;31129;44.810;10.334;2023-02-10T09:22:03;36.45;;;17.20;;
45392;SDS011;31129;44.810;10.334;2023-02-10T09:24:30;37.28;;;17.92;;
45392;SDS011;31129;44.810;10.334;2023-02-10T09:26:57;39.90;;;17.25;;
45392;SDS011;31129;44.810;10.334;2023-02-10T09:29:23;33.90;;;17.05;;
45392;SDS011;31129;44.810;10.334;2023-02-10T09:31:48;42.30;;;18.38;;
45392;SDS011;31129;44.810;10.334;2023-02-10T09:34:14;37.20;;;18.77;;
45392;SDS011;31129;44.810;10.334;2023-02-10T09:36:40;37.28;;;16.75;;
45392;SDS011;31129;44.810;10.334;2023-02-10T09:39:05;30.73;;;16.95;;
45392;SDS011;31129;44.810;10.334;2023-02-10T09:44:20;40.97;;;19.10;;
45392;SDS011;31129;44.810;10.334;2023-02-10T09:52:15;41.85;;;17.02;;
45392;SDS011;31129;44.810;10.334;2023-02-10T09:54:45;34.85;;;16.00;;
45392;SDS011;31129;44.810;10.334;2023-02-10T09:57:12;38.15;;;17.15;;
45392;SDS011;31129;44.810;10.334;2023-02-10T10:25:19;33.20;;;16.40;;
45392;SDS011;31129;44.810;10.334;2023-02-10T10:28:12;35.83;;;17.33;;
45392;SDS011;31129;44.810;10.334;2023-02-10T10:34:12;35.83;;;18.90;;
45392;SDS011;31129;44.810;10.334;2023-02-10T10:36:40;36.63;;;19.30;;
45392;SDS011;31129;44.810;10.334;2023-02-10T10:41:40;41.20;;;20.67;;
45392;SDS011;31129;44.810;10.334;2023-02-10T10:44:07;42.45;;;22.00;;
45392;SDS011;31129;44.810;10.334;2023-02-10T10:46:50;44.30;;;20.38;;
45392;SDS011;31129;44.810;10.334;2023-02-10T10:49:26;39.83;;;20.23;;
45392;SDS011;31129;44.810;10.334;2023-02-10T10:52:19;41.83;;;21.50;;
45392;SDS011;31129;44.810;10.334;2023-02-10T10:54:53;45.40;;;20.75;;
45392;SDS011;31129;44.810;10.334;2023-02-10T10:57:18;50.55;;;19.55;;
45392;SDS011;31129;44.810;10.334;2023-02-10T10:59:49;41.90;;;19.92;;
45392;SDS011;31129;44.810;10.334;2023-02-10T11:02:19;40.75;;;20.45;;
45392;SDS011;31129;44.810;10.334;2023-02-10T11:05:34;40.10;;;20.33;;
45392;SDS011;31129;44.810;10.334;2023-02-10T11:07:41;37.70;;;19.70;;
45392;SDS011;31129;44.810;10.334;2023-02-10T11:10:19;42.50;;;20.83;;
45392;SDS011;31129;44.810;10.334;2023-02-10T11:12:53;49.15;;;22.42;;
45392;SDS011;31129;44.810;10.334;2023-02-10T11:17:58;39.28;;;20.83;;
45392;SDS011;31129;44.810;10.334;2023-02-10T11:23:24;43.97;;;22.02;;
45392;SDS011;31129;44.810;10.334;2023-02-10T11:26:00;40.28;;;22.40;;
45392;SDS011;31129;44.810;10.334;2023-02-10T11:28:29;40.40;;;21.83;;
45392;SDS011;31129;44.810;10.334;2023-02-10T11:30:58;44.88;;;21.92;;
45392;SDS011;31129;44.810;10.334;2023-02-10T11:33:30;40.95;;;20.75;;
45392;SDS011;31129;44.810;10.334;2023-02-10T11:36:09;42.35;;;21.38;;
45392;SDS011;31129;44.810;10.334;2023-02-10T11:38:37;44.38;;;22.83;;
45392;SDS011;31129;44.810;10.334;2023-02-10T11:41:09;41.95;;;23.38;;
45392;SDS011;31129;44.810;10.334;2023-02-10T11:43:42;45.80;;;24.38;;
45392;SDS011;31129;44.810;10.334;2023-02-10T11:46:20;52.63;;;23.65;;
45392;SDS011;31129;44.810;10.334;2023-02-10T11:48:57;52.58;;;23.10;;
45392;SDS011;31129;44.810;10.334;2023-02-10T11:51:50;43.10;;;23.33;;
45392;SDS011;31129;44.810;10.334;2023-02-10T11:54:24;48.90;;;24.98;;
45392;SDS011;31129;44.810;10.334;2023-02-10T11:56:54;49.47;;;25.20;;
45392;SDS011;31129;44.810;10.334;2023-02-10T12:00:03;47.33;;;23.50;;
45392;SDS011;31129;44.810;10.334;2023-02-10T12:05:44;44.35;;;23.80;;
45392;SDS011;31129;44.810;10.334;2023-02-10T12:08:58;47.78;;;24.67;;
45392;SDS011;31129;44.810;10.334;2023-02-10T12:17:28;45.45;;;24.85;;
45392;SDS011;31129;44.810;10.334;2023-02-10T12:20:02;44.67;;;23.98;;
45392;SDS011;31129;44.810;10.334;2023-02-10T12:28:09;48.28;;;23.77;;
45392;SDS011;31129;44.810;10.334;2023-02-10T12:33:44;42.80;;;23.58;;
45392;SDS011;31129;44.810;10.334;2023-02-10T12:36:31;43.80;;;24.02;;
45392;SDS011;31129;44.810;10.334;2023-02-10T12:41:46;44.50;;;25.75;;
45392;SDS011;31129;44.810;10.334;2023-02-10T12:53:30;44.53;;;24.38;;
45392;SDS011;31129;44.810;10.334;2023-02-10T12:56:14;43.20;;;24.13;;
45392;SDS011;31129;44.810;10.334;2023-02-10T12:58:46;45.20;;;24.38;;
45392;SDS011;31129;44.810;10.334;2023-02-10T13:01:18;44.60;;;23.67;;
45392;SDS011;31129;44.810;10.334;2023-02-10T13:03:50;46.05;;;24.08;;
45392;SDS011;31129;44.810;10.334;2023-02-10T13:06:36;45.63;;;25.88;;
45392;SDS011;31129;44.810;10.334;2023-02-10T13:09:50;44.85;;;23.40;;
45392;SDS011;31129;44.810;10.334;2023-02-10T13:12:26;42.78;;;21.73;;
45392;SDS011;31129;44.810;10.334;2023-02-10T13:14:59;43.40;;;22.70;;
45392;SDS011;31129;44.810;10.334;2023-02-10T13:17:47;48.78;;;23.45;;
45392;SDS011;31129;44.810;10.334;2023-02-10T13:34:41;46.17;;;23.38;;
45392;SDS011;31129;44.810;10.334;2023-02-10T13:39:54;41.50;;;23.30;;
45392;SDS011;31129;44.810;10.334;2023-02-10T13:42:24;42.65;;;21.85;;
45392;SDS011;31129;44.810;10.334;2023-02-10T13:45:26;46.85;;;21.98;;
45392;SDS011;31129;44.810;10.334;2023-02-10T13:50:23;41.38;;;23.80;;
45392;SDS011;31129;44.810;10.334;2023-02-10T13:52:53;39.25;;;22.08;;
45392;SDS011;31129;44.810;10.334;2023-02-10T14:00:46;39.72;;;22.58;;
45392;SDS011;31129;44.810;10.334;2023-02-10T14:05:55;45.83;;;23.75;;
45392;SDS011;31129;44.810;10.334;2023-02-10T14:08:34;44.42;;;23.70;;
45392;SDS011;31129;44.810;10.334;2023-02-10T14:13:44;50.30;;;22.45;;
45392;SDS011;31129;44.810;10.334;2023-02-10T14:16:38;43.38;;;22.52;;
45392;SDS011;31129;44.810;10.334;2023-02-10T14:19:29;42.03;;;23.77;;
45392;SDS011;31129;44.810;10.334;2023-02-10T14:22:00;41.88;;;23.25;;
45392;SDS011;31129;44.810;10.334;2023-02-10T14:24:28;41.33;;;21.75;;
45392;SDS011;31129;44.810;10.334;2023-02-10T14:27:00;45.88;;;23.30;;
45392;SDS011;31129;44.810;10.334;2023-02-10T14:29:31;43.42;;;23.38;;
45392;SDS011;31129;44.810;10.334;2023-02-10T14:32:04;43.92;;;23.10;;
45392;SDS011;31129;44.810;10.334;2023-02-10T14:34:33;43.53;;;24.08;;
45392;SDS011;31129;44.810;10.334;2023-02-10T14:37:00;43.55;;;23.75;;
45392;SDS011;31129;44.810;10.334;2023-02-10T14:39:50;45.00;;;24.30;;
45392;SDS011;31129;44.810;10.334;2023-02-10T14:42:16;44.88;;;24.17;;
45392;SDS011;31129;44.810;10.334;2023-02-10T14:44:47;43.45;;;24.67;;
45392;SDS011;31129;44.810;10.334;2023-02-10T14:47:17;45.63;;;23.85;;
45392;SDS011;31129;44.810;10.334;2023-02-10T14:49:48;42.88;;;23.00;;
45392;SDS011;31129;44.810;10.334;2023-02-10T14:52:26;45.15;;;23.23;;
45392;SDS011;31129;44.810;10.334;2023-02-10T14:54:54;37.45;;;22.05;;
45392;SDS011;31129;44.810;10.334;2023-02-10T14:57:24;46.67;;;23.75;;
45392;SDS011;31129;44.810;10.334;2023-02-10T15:02:22;39.65;;;22.38;;
45392;SDS011;31129;44.810;10.334;2023-02-10T15:04:50;41.78;;;22.63;;
45392;SDS011;31129;44.810;10.334;2023-02-10T15:07:22;40.63;;;21.73;;
45392;SDS011;31129;44.810;10.334;2023-02-10T15:10:25;43.28;;;22.73;;
45392;SDS011;31129;44.810;10.334;2023-02-10T15:12:58;41.10;;;22.20;;
45392;SDS011;31129;44.810;10.334;2023-02-10T15:15:28;49.40;;;24.60;;
45392;SDS011;31129;44.810;10.334;2023-02-10T15:21:36;39.67;;;22.70;;
45392;SDS011;31129;44.810;10.334;2023-02-10T15:26:50;38.95;;;22.15;;
45392;SDS011;31129;44.810;10.334;2023-02-10T15:29:36;39.33;;;21.77;;
45392;SDS011;31129;44.810;10.334;2023-02-10T15:32:02;44.95;;;25.63;;
45392;SDS011;31129;44.810;10.334;2023-02-10T15:34:30;43.53;;;22.95;;
45392;SDS011;31129;44.810;10.334;2023-02-10T15:37:01;41.25;;;22.77;;
45392;SDS011;31129;44.810;10.334;2023-02-10T15:40:15;39.08;;;21.65;;
45392;SDS011;31129;44.810;10.334;2023-02-10T15:42:31;43.10;;;23.65;;
45392;SDS011;31129;44.810;10.334;2023-02-10T15:45:03;49.08;;;22.05;;
45392;SDS011;31129;44.810;10.334;2023-02-10T15:47:42;41.75;;;21.70;;
45392;SDS011;31129;44.810;10.334;2023-02-10T15:50:11;48.03;;;25.00;;
45392;SDS011;31129;44.810;10.334;2023-02-10T15:52:41;45.60;;;25.10;;
45392;SDS011;31129;44.810;10.334;2023-02-10T15:55:14;43.60;;;23.48;;
45392;SDS011;31129;44.810;10.334;2023-02-10T15:58:03;47.15;;;25.95;;
45392;SDS011;31129;44.810;10.334;2023-02-10T16:00:30;43.35;;;24.17;;
45392;SDS011;31129;44.810;10.334;2023-02-10T16:03:01;44.85;;;23.95;;
45392;SDS011;31129;44.810;10.334;2023-02-10T16:05:27;40.45;;;23.52;;
45392;SDS011;31129;44.810;10.334;2023-02-10T16:07:54;46.58;;;24.67;;
45392;SDS011;31129;44.810;10.334;2023-02-10T16:10:26;47.90;;;23.95;;
45392;SDS011;31129;44.810;10.334;2023-02-10T16:12:52;46.70;;;25.75;;
45392;SDS011;31129;44.810;10.334;2023-02-10T16:15:19;49.42;;;23.63;;
45392;SDS011;31129;44.810;10.334;2023-02-10T16:20:21;48.90;;;25.13;;
45392;SDS011;31129;44.810;10.334;2023-02-10T16:22:49;56.08;;;24.65;;
45392;SDS011;31129;44.810;10.334;2023-02-10T16:25:16;43.40;;;23.58;;
45392;SDS011;31129;44.810;10.334;2023-02-10T16:27:43;46.30;;;23.30;;
45392;SDS011;31129;44.810;10.334;2023-02-10T16:30:30;46.53;;;23.45;;
45392;SDS011;31129;44.810;10.334;2023-02-10T16:32:55;51.08;;;24.95;;
45392;SDS011;31129;44.810;10.334;2023-02-10T16:35:21;52.28;;;25.35;;
45392;SDS011;31129;44.810;10.334;2023-02-10T16:37:48;50.00;;;25.05;;
45392;SDS011;31129;44.810;10.334;2023-02-10T16:40:16;48.88;;;25.50;;
45392;SDS011;31129;44.810;10.334;2023-02-10T16:42:51;54.40;;;25.23;;
45392;SDS011;31129;44.810;10.334;2023-02-10T16:45:24;50.90;;;26.20;;
45392;SDS011;31129;44.810;10.334;2023-02-10T16:47:54;51.67;;;26.23;;
45392;SDS011;31129;44.810;10.334;2023-02-10T17:42:59;48.40;;;24.63;;
45392;SDS011;31129;44.810;10.334;2023-02-10T17:45:25;53.28;;;25.65;;